LFBP/PUF METAR and TAF weather

Enter ICAO airport designator
Station Type Date Time Source
LFBP METAR 2022/12/10 02:30 UTC NOAA

LFBP 100230Z AUTO 31010KT 5000 BR OVC004/// ///TCU 03/03 Q1008 BECMG BKN012


Station Type Date Time Source
LFBP Decoded METAR 2022/12/10 02:30 UTC NOAA

Pau, France (LFBP) 43-23N 000-25W 185M
Dec 09, 2022 - 09:30 PM EST / 2022.12.10 0230 UTC
Wind: from the NW (310 degrees) at 12 MPH (10 KT):0
Visibility: 3 mile(s):0
Sky conditions: overcast
Weather: mist; Towering cumulus clouds observed
Temperature: 37 F (3 C)
Dew Point: 37 F (3 C)
Relative Humidity: 100%
Pressure (altimeter): 29.77 in. Hg (1008 hPa)
ob: LFBP 100230Z AUTO 31010KT 5000 BR OVC004/// ///TCU 03/03 Q1008 BECMG BKN012
cycle: 2

Station Type Date Time Source
LFBP TAF 2022/12/10 01:30 UTC NOAA

TAF
AMD LFBP 100117Z 1001/1024 34010KT 3000 BR BKN004 PROB40
TEMPO 1001/1003 0500 FG VV///
BECMG 1003/1005 9999 NSW BKN012
BECMG 1008/1010 CAVOK
BECMG 1014/1016 VRB03KT

Example: see airport list